Stations in: Vaal Major (Blue row indicates station is a dam and capacity is shown in percentage)
Station Place Date/Time Stage (m) Flow/Cap Spill Comment
C1H006 Blesbok at Rietvley 2024-03-01 02:00 0.070 0.05
C1H007 Vaal at Bloukop 2024-03-01 02:00 0.246 4.56
C1H008 Watervals at Elandslaagte 2024-03-01 02:00 0.482 0.18
C1H012 Vaal at Gladdedrift 2024-03-01 02:00 0.605 4.54
C1H015 Klip at Delangesdrift 2024-03-01 01:00 1.233 10.43
C1H019 Outflow from Grootdraai Dam 2024-03-01 02:00 0.386 1.47
C1R001 Vaal at Vaal Dam 2024-03-01 02:00 19.626 67.91
C1R002 Vaal at Grootdraai Dam 2024-03-01 02:00 26.929 99.10 0.00
C2H004 Suikerbosrant at Uitvlugt 2024-03-01 02:00 0.624 2.99
C2H005 Riet Spruit at Kaalplaats 2024-03-01 02:00 0.339 1.81
C2H007 Vaal at Orkney 2024-03-01 02:00 0.256 14.14
C2H061 Vaal at Klipplaatdrift 2024-02-29 20:00 0.288 12.28
C2H071 Klip River @ Kookfontein 2024-03-01 02:00 0.709 12.37
C2H122 Outflow from Vaal Dam 2024-03-01 02:00 0.565 18.04
C2H140 Vaal at Woodlands 2024-03-01 02:00 0.435 24.94
C2H272 Vaal at Lethabo 2024-02-29 21:00 0.084 2.30
C3R001 Harts at Wentzel Dam 2024-02-29 05:00 4.661 37.33 0.00
C3R002 Harts at Spitskop Dam 2024-02-23 11:48 5.462 65.48 0.00
C3R006 Harts at Taung Dam 2024-02-29 17:00 24.843 91.62 0.00
C4H004 Vet at Nooitgedacht 2024-02-29 08:00 0.416 2.51
C4H015 Vet at Vaalkoppies 2024-02-29 20:00 1.198 0.58
C4H016 Sand at Bloudrift 2024-03-01 01:00 0.160 0.85
C4R001 Sand at Allemanskraal Dam 2024-03-01 01:00 10.871 73.08 0.00
C4R002 Groot Vet at Erfenis Dam 2024-03-01 01:00 29.888 90.55 0.00
C6H002 Vals at Bothaville 2024-03-01 01:00 0.119 0.25
C6H006 Vals at Tweefontein 2024-03-01 01:00 1.444 0.00
C6H007 Vals at Kroonstadbrug 2024-02-29 21:00 2.686 0.00
C6H009 Vals at Lindley 2024-02-29 05:00 0.025
C7H019 Renoster at Verheugd 2024-03-01 01:00 0.057
C7R001 Renoster at Koppies Dam 2024-03-01 01:00 5.639 90.42 0.00
C8H001 Wilge at Frankfort 2024-03-01 01:00 0.510 25.64
C8H003 Cornelis at Warden 2024-02-29 20:00 0.036 0.19
C8H005 Elands at Elands River Drift 2024-03-01 01:00 0.133 1.28
C8H020 Liebenbergsvlei at Roodekraal 2024-02-24 05:00 0.620 26.60
C8H023 Meul River at The Willows 2024-03-01 01:00 -0.024 2.81
C8H026 Liebenbergsvlei at Frederiksdal 2024-03-01 01:00 0.856 30.56
C8H027 Wilge at Ballingtomp 2024-02-29 20:00 0.608 4.57
C8H028 Wilge at Bavaria 2024-02-29 20:00 0.444
C8H036 Ash at outlet from Katse Dam 2024-03-01 01:00 1.447 36.28
C8H037 Liebenbergsvlei at Reward 2024-03-01 01:00 0.606 33.50
C8R003 Nuwejaarspr at Sterkfontein Dam 2024-02-29 20:00 81.979 99.95
C8R004 Liebenbergsvlei at Saulspoort Dam 2024-03-01 01:00 10.548 102.42 5.22
C9H010 Vaal River @ Gamagara 2024-02-29 05:00 1.699 2.36
C9H021 Outflow from Bloemhof Dam 2024-02-29 05:00 0.482 26.06
C9H024 Vaal at Schmidsdrift
C9R001 Vaal at Vaalharts Weir 2024-02-29 05:00 6.781 79.89
C9R002 Vaal at Bloemhof Dam 2024-02-29 05:00 17.596 92.84
C9R003 Vaal at Douglas Weir 2024-02-29 17:00 2.622 90.75 0.00

Use your mouse cursor zoom and pan the images below.